Terminal Aerodrome Forecast
Issued by NWS

Home | Current Version | Previous Version | Text Only | Print | Product List | Glossary On
Versions: 1 2 3 4 5 6 7 8 9 10 11 12 13 14 15 16 17 18 19 20 21 22 23 24 25 26 27 28 29 30 31 32 33 34
000
FTUS45 KBOI 210832 AAA
TAFTWF
TAF AMD
KTWF 210832Z 2109/2206 22015KT P6SM VCSH BKN110
     FM211200 23015G25KT P6SM -SHRA BKN050 OVC090
     FM211800 26020G30KT P6SM VCSH SCT060 BKN120
     FM220000 26015G25KT P6SM SCT080=

USA.gov is the U.S. government's official web portal to all federal, state and local government web resources and services.